Meteo Giornale » Osservazioni meteo Stati Uniti (USA) » Erie

ore: 12:55 - Osservazioni Meteo Erie
Lat. 40° 1' N Lon. 105° 3' W Alt. 1564 metri s.l.m.

poco_nuvoloso

29 °C

Poco Nuvoloso

Temp. 24 Ore

15 °C

30 °C

Sud-Est

14.8 Km/h

Dew point 8 °C

Umidità 26 %

Visibilità  14 Km

Il sole sorge alle ore 06:28

Il sole tramonta alle ore 19:31

Data e Ora Cielo e Fenomeni T °C DP °C Um. % Pres. hPa Vis. km Vento km/h
Oggi h: 12:55 poco_nuvoloso Poco Nuvoloso 29 8 26 1018 14 SE 14.8
Oggi h: 12:35 poco_nuvoloso Poco Nuvoloso 29 8 26 1018 10 N 11.1
Oggi h: 12:15 poco_nuvoloso Poco Nuvoloso 29 7 25 1018 10 N 5.5
Oggi h: 11:55 sereno Sereno 28 8 28 1019 14 N 7.4
Oggi h: 11:35 sereno Sereno 29 7 25 1019 14 SO 11.1
Oggi h: 11:15 sereno Sereno 27 7 28 1019 14 N 7.4
Oggi h: 10:55 sereno Sereno 26 12 41 1019 14 N/NO 9.3
Oggi h: 10:35 sereno Sereno 23 13 53 1019 14 N 5.5
Oggi h: 10:15 sereno Sereno 22 14 60 1019 10 N 5.5
Oggi h: 09:55 sereno Sereno 20 15 72 1020 10 N 0
Oggi h: 09:35 sereno Sereno 19 16 82 1020 14 N 5.5
Oggi h: 09:15 poco_nuvoloso Poco Nuvoloso 19 16 82 1020 10 N 0
Oggi h: 08:55 sereno Sereno 18 16 88 1020 14 N 0
Oggi h: 08:35 sereno Sereno 18 16 88 1020 14 N 0
Oggi h: 08:15 sereno Sereno 17 15 88 1020 14 N 0
Oggi h: 07:55 sereno Sereno 16 16 100 1020 10 N 5.5
Oggi h: 07:35 poco_nuvoloso Poco Nuvoloso 16 16 100 1020 10 N 0
Oggi h: 07:15 sereno Sereno 16 15 93 1019 10 N 0
Oggi h: 06:55 poco_nuvoloso Poco Nuvoloso 15 15 100 1019 14 N 0
Oggi h: 06:35 nuvoloso Nuvoloso 15 15 100 1019 10 N 0
Oggi h: 06:15 poco_nuvoloso Poco Nuvoloso 16 15 93 1019 10 N 0
Oggi h: 05:55 poco_nuvoloso Poco Nuvoloso 16 15 93 1018 10 N 0
Oggi h: 05:35 nuvoloso Nuvoloso 16 16 100 1018 10 N 5.5
Oggi h: 05:15 poco_nuvoloso Poco Nuvoloso 16 16 100 1019 10 N 0
Oggi h: 04:55 poco_nuvoloso Poco Nuvoloso 16 16 100 1019 10 N 5.5
Oggi h: 04:35 poco_nuvoloso Poco Nuvoloso 16 15 93 1019 10 N 7.4
Oggi h: 04:15 poco_nuvoloso Poco Nuvoloso 16 15 93 1019 10 S/SE 7.4
Oggi h: 03:55 sereno Sereno 16 16 100 1019 10 SE 7.4
Oggi h: 03:35 poco_nuvoloso Poco Nuvoloso 16 16 100 1020 10 N 0
Oggi h: 03:15 nuvoloso Nuvoloso 17 16 93 1020 10 N 5.5
Oggi h: 02:55 nuvoloso Nuvoloso 17 16 93 1020 10 S 7.4
Oggi h: 02:35 nuvoloso Nuvoloso 17 17 100 1020 14 N 5.5
Oggi h: 02:15 coperto Coperto 17 17 100 1020 10 N 0
Oggi h: 01:55 coperto Coperto 17 17 100 1020 10 N 0
Oggi h: 01:35 coperto_pioggia Pioggia 17 16 93 1020 14 N 0
Oggi h: 01:15 coperto_pioggia Pioggia 17 16 93 1021 10 N 5.5
Oggi h: 00:55 coperto_pioggia Pioggia 17 16 93 1020 14 N 0
Oggi h: 00:35 coperto Coperto 17 16 93 1020 10 N 5.5
Oggi h: 00:15 molto_nuvoloso Molto Nuvoloso 17 16 93 1021 10 S 7.4
Ieri h: 23:55 molto_nuvoloso Molto Nuvoloso 17 16 93 1020 10 N 0
Ieri h: 23:35 molto_nuvoloso Molto Nuvoloso 17 17 100 1020 10 N 0
Ieri h: 23:15 poco_nuvoloso Poco Nuvoloso 17 17 100 1020 10 N 5.5
Ieri h: 22:55 poco_nuvoloso Poco Nuvoloso 17 16 93 1020 10 N 0
Ieri h: 22:35 poco_nuvoloso Poco Nuvoloso 17 16 93 1021 10 N 5.5
Ieri h: 22:15 molto_nuvoloso Molto Nuvoloso 17 16 93 1020 10 O 11.1
Ieri h: 21:55 coperto_pioggia Pioggia 17 16 93 1021 13 N 5.5
Ieri h: 21:35 coperto_pioggia Pioggia Foschia 17 16 93 1021 8 N 5.5
Ieri h: 21:15 coperto_pioggia Pioggia 17 16 93 1022 11 SO 16.7
Ieri h: 20:55 coperto_pioggia Pioggia Temporale nelle vicinanze 18 16 88 1022 11 SO 25.9
Ieri h: 20:35 coperto_temporali Temporale 21 13 60 1021 10 S/SO 20.3
Ieri h: 20:15 coperto Coperto 21 13 60 1019 10 N 5.5
Ieri h: 19:55 coperto Coperto 21 13 60 1019 10 N 9.3
Ieri h: 19:35 coperto Coperto 21 13 60 1019 10 O/NO 7.4
Ieri h: 19:15 coperto Coperto 21 14 64 1019 10 O/NO 11.1
Ieri h: 18:55 coperto_pioggia Pioggia 20 14 68 1019 6 O 33.3
Ieri h: 18:35 coperto Coperto 26 7 29 1018 10 O/NO 31.5
Ieri h: 18:15 coperto Coperto 28 6 24 1018 10 E 9.3
Ieri h: 17:55 molto_nuvoloso Molto Nuvoloso 29 6 23 1018 10 E 9.3
Ieri h: 17:35 nuvoloso Nuvoloso 29 6 23 1018 14 E 9.3
Ieri h: 17:15 molto_nuvoloso Molto Nuvoloso 29 6 23 1018 13 N/NE 7.4
Ieri h: 16:55 poco_nuvoloso Poco Nuvoloso 29 6 23 1018 14 E/SE 9.3
Ieri h: 16:35 molto_nuvoloso Molto Nuvoloso 30 6 22 1018 10 E 11.1
Ieri h: 16:15 molto_nuvoloso Molto Nuvoloso 29 5 21 1019 14 N 5.5
Ieri h: 15:55 coperto Coperto 30 6 22 1019 10 N 11.1
Ieri h: 15:35 molto_nuvoloso Molto Nuvoloso 30 6 22 1019 10 N 5.5
Ieri h: 15:15 molto_nuvoloso Molto Nuvoloso 30 5 20 1019 10 E/SE 11.1
Ieri h: 14:55 molto_nuvoloso Molto Nuvoloso 29 6 23 1019 14 E/SE 9.3
Ieri h: 14:35 coperto Coperto 29 6 23 1020 14 S 11.1
Ieri h: 14:15 molto_nuvoloso Molto Nuvoloso 29 6 23 1020 14 SE 7.4
Ieri h: 13:55 poco_nuvoloso Poco Nuvoloso 28 5 23 1020 14 E 9.3
Ieri h: 13:35 poco_nuvoloso Poco Nuvoloso 28 6 24 1020 10 N 9.3